createdAt,value
2023-03-14T00:00:59.312Z,8.3
2023-03-14T00:21:00.509Z,8.3
2023-03-14T00:41:11.833Z,8.5
2023-03-14T01:01:05.808Z,8.5
2023-03-14T01:21:01.253Z,8.5
2023-03-14T02:00:58.762Z,8.5
2023-03-14T02:20:58.422Z,8.3
2023-03-14T02:40:57.343Z,8.2
2023-03-14T03:00:58.307Z,8.3
2023-03-14T03:20:58.973Z,8.4
2023-03-14T03:40:59.493Z,8.6
2023-03-14T04:00:59.193Z,8.4
2023-03-14T04:20:57.722Z,8.6
2023-03-14T04:40:57.468Z,8.3
2023-03-14T05:01:22.640Z,8.2
2023-03-14T05:21:00.264Z,8.1
2023-03-14T05:40:57.350Z,8.2
2023-03-14T06:00:57.325Z,8
2023-03-14T06:20:59.007Z,7.7
2023-03-14T06:41:31.301Z,7.7
2023-03-14T07:01:26.482Z,7.7
2023-03-14T07:21:25.838Z,7.8
2023-03-14T07:41:32.551Z,8.1
2023-03-14T08:01:31.614Z,8.8
2023-03-14T08:21:30.076Z,8.8
2023-03-14T08:41:39.613Z,8.5
2023-03-14T09:01:25.941Z,8.5
2023-03-14T09:21:31.048Z,8.7
2023-03-14T09:41:34.646Z,8.8
2023-03-14T10:01:40.211Z,8.2
2023-03-14T10:21:28.132Z,8.2
2023-03-14T10:41:25.473Z,7.4
2023-03-14T11:01:31.448Z,7.2
2023-03-14T11:21:32.738Z,7.2
2023-03-14T11:41:34.793Z,6
2023-03-14T12:01:34.582Z,6
2023-03-14T12:21:24.825Z,6.1
2023-03-14T12:41:25.230Z,6.1
2023-03-14T13:01:23.140Z,6.3
2023-03-14T13:21:25.773Z,6.8
2023-03-14T13:41:35.981Z,7.7
2023-03-14T14:01:38.244Z,7.9
2023-03-14T14:21:31.085Z,7.9
2023-03-14T14:41:28.195Z,7.9
2023-03-14T15:01:30.762Z,7.9
2023-03-14T15:21:35.184Z,7.8
2023-03-14T15:41:30.648Z,7.9
2023-03-14T16:01:34.600Z,6.7
2023-03-14T16:21:28.383Z,6.5
2023-03-14T16:41:31.649Z,6.4
2023-03-14T17:01:38.417Z,6.3
2023-03-14T17:20:58.233Z,6.2
2023-03-14T17:40:56.670Z,6.2
2023-03-14T18:00:57.787Z,5.9
2023-03-14T18:21:00.949Z,5.8
2023-03-14T18:41:01.112Z,4.8
2023-03-14T19:00:58.627Z,4.7
2023-03-14T19:21:02.005Z,5
2023-03-14T19:40:58.256Z,5
2023-03-14T20:00:58.850Z,5.1
2023-03-14T20:20:57.883Z,4.9
2023-03-14T20:40:57.255Z,5
2023-03-14T21:01:00.135Z,5.2
2023-03-14T21:21:00.666Z,5.2
2023-03-14T21:40:57.276Z,5.4
2023-03-14T22:00:58.213Z,5.5
2023-03-14T22:20:58.962Z,5.6
2023-03-14T22:41:01.760Z,3.4
2023-03-14T23:01:07.800Z,3.4
2023-03-14T23:21:02.384Z,2.9
2023-03-14T23:40:57.656Z,2.8
